createdAt,value
2019-03-11T00:00:37.560Z,84.64
2019-03-11T00:05:37.635Z,83.98
2019-03-11T00:10:37.548Z,83.90
2019-03-11T00:15:37.637Z,83.24
2019-03-11T00:20:36.635Z,83.91
2019-03-11T00:25:35.632Z,84.03
2019-03-11T00:30:35.601Z,84.13
2019-03-11T00:35:35.520Z,84.04
2019-03-11T00:40:35.622Z,81.90
2019-03-11T00:45:34.557Z,82.04
2019-03-11T00:50:33.585Z,82.50
2019-03-11T00:55:33.643Z,81.38
2019-03-11T01:00:33.572Z,82.16
2019-03-11T01:05:34.629Z,81.37
2019-03-11T01:10:34.569Z,81.33
2019-03-11T01:15:35.615Z,80.36
2019-03-11T01:20:35.570Z,80.85
2019-03-11T01:25:35.577Z,81.42
2019-03-11T01:30:34.581Z,81.40
2019-03-11T01:35:34.575Z,82.24
2019-03-11T01:40:34.570Z,82.35
2019-03-11T01:45:34.573Z,82.93
2019-03-11T01:50:34.568Z,83.19
2019-03-11T01:55:34.612Z,82.78
2019-03-11T02:00:33.600Z,82.37
2019-03-11T02:05:33.611Z,82.84
2019-03-11T02:10:33.594Z,83.12
2019-03-11T02:15:33.661Z,83.37
2019-03-11T02:20:33.568Z,83.10
2019-03-11T02:25:33.607Z,82.71
2019-03-11T02:30:33.620Z,82.44
2019-03-11T02:35:32.644Z,83.24
2019-03-11T02:40:31.649Z,82.81
2019-03-11T02:45:31.604Z,83.20
2019-03-11T02:50:31.600Z,82.39
2019-03-11T02:55:31.615Z,80.95
2019-03-11T03:00:30.594Z,81.96
2019-03-11T03:05:30.645Z,81.87
2019-03-11T03:10:30.672Z,81.93
2019-03-11T03:15:29.598Z,81.66
2019-03-11T03:20:29.610Z,82.42
2019-03-11T03:25:34.561Z,81.70
2019-03-11T03:30:29.609Z,82.29
2019-03-11T03:35:29.632Z,82.06
2019-03-11T03:40:29.123Z,82.84
2019-03-11T03:45:28.683Z,82.46
2019-03-11T03:50:28.965Z,82.79
2019-03-11T03:55:27.646Z,82.76
2019-03-11T04:00:27.631Z,83.01
2019-03-11T04:05:27.695Z,82.80
2019-03-11T04:10:27.667Z,82.28
2019-03-11T04:15:27.758Z,82.13
2019-03-11T04:20:26.654Z,82.66
2019-03-11T04:25:25.709Z,82.82
2019-03-11T04:30:25.615Z,83.08
2019-03-11T04:35:25.688Z,82.87
2019-03-11T04:40:24.753Z,83.57
2019-03-11T04:45:24.655Z,82.33
2019-03-11T04:50:23.658Z,82.75
2019-03-11T04:55:22.791Z,82.59
2019-03-11T05:00:23.668Z,83.32
2019-03-11T05:05:23.767Z,82.84
2019-03-11T05:10:22.653Z,83.30
2019-03-11T05:15:22.308Z,84.17
2019-03-11T05:20:21.864Z,84.23
2019-03-11T05:25:21.843Z,84.72
2019-03-11T05:30:21.938Z,84.42
2019-03-11T05:35:21.114Z,83.21
2019-03-11T05:40:21.852Z,83.52
2019-03-11T05:45:21.692Z,83.37
2019-03-11T05:50:21.725Z,82.54
2019-03-11T05:55:20.701Z,83.01
2019-03-11T06:00:20.755Z,83.21
2019-03-11T06:05:19.692Z,82.78
2019-03-11T06:10:19.688Z,83.32
2019-03-11T06:15:19.742Z,84.39
2019-03-11T06:20:19.681Z,85.55
2019-03-11T06:25:20.748Z,86.34
2019-03-11T06:30:19.742Z,86.28
2019-03-11T06:35:19.793Z,86.74
2019-03-11T06:40:20.747Z,86.88
2019-03-11T06:45:20.984Z,87.58
2019-03-11T06:55:19.861Z,89.48
2019-03-11T07:00:18.709Z,89.53
2019-03-11T07:05:20.594Z,89.16
2019-03-11T07:17:22.861Z,89.11
2019-03-11T07:25:20.018Z,89.34
2019-03-11T07:30:19.732Z,88.96
2019-03-11T07:35:20.041Z,89.27
2019-03-11T07:40:29.042Z,89.00
2019-03-11T07:45:19.012Z,89.44
2019-03-11T07:50:17.940Z,88.68
2019-03-11T07:55:17.147Z,88.69
2019-03-11T08:00:16.397Z,89.03
2019-03-11T08:05:15.804Z,89.84
2019-03-11T08:10:15.959Z,89.35
2019-03-11T08:15:15.823Z,88.70
2019-03-11T08:20:15.072Z,88.16
2019-03-11T08:25:15.803Z,88.02
2019-03-11T08:30:15.744Z,87.71
2019-03-11T08:35:15.781Z,87.60
2019-03-11T08:40:15.252Z,86.65
2019-03-11T08:45:14.787Z,87.63
2019-03-11T08:50:14.787Z,87.50
2019-03-11T08:55:13.779Z,87.32
2019-03-11T09:00:12.804Z,87.86
2019-03-11T09:05:12.982Z,87.18
2019-03-11T09:10:12.757Z,86.01
2019-03-11T09:15:12.805Z,86.54
2019-03-11T09:20:12.878Z,86.57
2019-03-11T09:25:12.148Z,86.69
2019-03-11T09:30:12.967Z,86.39
2019-03-11T09:35:13.243Z,85.58
2019-03-11T09:40:13.987Z,83.60
2019-03-11T09:45:13.820Z,84.05
2019-03-11T09:50:12.909Z,83.64
2019-03-11T09:55:12.838Z,83.39
2019-03-11T10:00:12.781Z,83.21
2019-03-11T10:05:13.884Z,83.25
2019-03-11T10:10:13.818Z,82.56
2019-03-11T10:15:13.948Z,83.15
2019-03-11T10:20:13.801Z,82.51
2019-03-11T10:25:13.849Z,81.70
2019-03-11T10:30:13.874Z,81.56
2019-03-11T10:35:30.915Z,80.93
2019-03-11T10:40:12.840Z,80.85
2019-03-11T10:45:12.833Z,81.87
2019-03-11T10:50:12.000Z,81.18
2019-03-11T10:55:11.343Z,81.90
2019-03-11T11:00:10.838Z,82.92
2019-03-11T11:05:10.256Z,84.37
2019-03-11T11:10:09.881Z,84.10
2019-03-11T11:15:08.940Z,83.36
2019-03-11T11:20:07.925Z,84.76
2019-03-11T11:25:06.961Z,83.50
2019-03-11T11:30:06.966Z,85.16
2019-03-11T11:35:05.890Z,85.03
2019-03-11T11:40:05.868Z,84.90
2019-03-11T11:45:05.281Z,86.00
2019-03-11T11:50:04.831Z,85.81
2019-03-11T11:55:04.855Z,85.13
2019-03-11T12:00:04.973Z,83.29
2019-03-11T12:05:05.841Z,81.10
2019-03-11T12:10:04.885Z,82.14
2019-03-11T12:15:04.864Z,78.95
2019-03-11T12:20:04.850Z,76.51
2019-03-11T12:25:04.865Z,76.47
2019-03-11T12:30:04.901Z,79.15
2019-03-11T12:35:05.915Z,81.70
2019-03-11T12:40:04.884Z,85.13
2019-03-11T12:45:04.055Z,88.19
2019-03-11T12:50:04.911Z,89.16
2019-03-11T12:55:04.907Z,88.60
2019-03-11T13:00:03.987Z,86.85
2019-03-11T13:05:04.232Z,81.14
2019-03-11T13:10:02.976Z,80.16
2019-03-11T13:15:01.883Z,77.96
2019-03-11T13:20:02.978Z,77.67
2019-03-11T13:25:02.213Z,76.84
2019-03-11T13:30:02.921Z,75.16
2019-03-11T13:35:02.965Z,75.27
2019-03-11T13:40:03.250Z,74.87
2019-03-11T13:45:02.978Z,76.00
2019-03-11T13:50:02.911Z,73.83
2019-03-11T13:55:10.360Z,74.51
2019-03-11T14:00:01.948Z,77.86
2019-03-11T14:05:00.958Z,76.29
2019-03-11T14:10:00.073Z,77.15
2019-03-11T14:14:58.992Z,76.42
2019-03-11T14:19:59.956Z,74.87
2019-03-11T14:24:58.921Z,74.51
2019-03-11T14:29:58.946Z,77.41
2019-03-11T14:34:58.914Z,78.48
2019-03-11T14:39:57.957Z,80.49
2019-03-11T14:44:57.018Z,81.46
2019-03-11T14:49:57.140Z,76.07
2019-03-11T14:54:57.201Z,74.01
2019-03-11T14:59:56.390Z,74.66
2019-03-11T15:04:55.245Z,73.66
2019-03-11T15:09:55.941Z,72.64
2019-03-11T15:14:55.366Z,70.76
2019-03-11T15:19:54.971Z,67.36
2019-03-11T15:24:55.004Z,69.42
2019-03-11T15:29:55.099Z,67.67
2019-03-11T15:34:54.979Z,69.33
2019-03-11T15:39:53.935Z,69.75
2019-03-11T15:44:53.928Z,71.09
2019-03-11T15:49:52.986Z,69.48
2019-03-11T15:54:52.989Z,72.21
2019-03-11T15:59:51.964Z,74.54
2019-03-11T16:04:51.026Z,76.60
2019-03-11T16:09:50.069Z,76.31
2019-03-11T16:14:50.123Z,76.14
2019-03-11T16:19:50.819Z,75.93
2019-03-11T16:24:49.946Z,75.42
2019-03-11T16:29:49.013Z,78.26
2019-03-11T16:39:49.045Z,81.36
2019-03-11T16:44:49.002Z,82.50
2019-03-11T16:49:49.094Z,83.58
2019-03-11T16:54:49.138Z,83.37
2019-03-11T16:59:48.019Z,84.11
2019-03-11T17:04:46.983Z,84.10
2019-03-11T17:09:45.985Z,85.45
2019-03-11T17:14:45.031Z,84.22
2019-03-11T17:19:44.020Z,85.44
2019-03-11T17:24:44.993Z,85.04
2019-03-11T17:29:45.023Z,85.02
2019-03-11T17:34:44.092Z,85.24
2019-03-11T17:39:44.004Z,85.02
2019-03-11T17:44:43.632Z,84.86
2019-03-11T17:49:43.035Z,84.84
2019-03-11T17:54:43.031Z,83.67
2019-03-11T17:59:42.222Z,84.86
2019-03-11T18:04:43.070Z,84.18
2019-03-11T18:09:44.016Z,84.56
2019-03-11T18:14:44.043Z,84.07
2019-03-11T18:19:44.099Z,84.18
2019-03-11T18:24:43.709Z,84.30
2019-03-11T18:29:43.239Z,84.48
2019-03-11T18:34:43.379Z,84.51
2019-03-11T18:39:42.302Z,85.12
2019-03-11T18:44:42.282Z,85.26
2019-03-11T18:49:41.510Z,84.86
2019-03-11T18:54:41.388Z,84.67
2019-03-11T18:59:40.043Z,84.31
2019-03-11T19:04:39.054Z,83.87
2019-03-11T19:09:40.608Z,84.63
2019-03-11T19:14:39.264Z,84.67
2019-03-11T19:19:46.178Z,84.74
2019-03-11T19:24:38.203Z,84.01
2019-03-11T19:29:38.455Z,84.24
2019-03-11T19:34:38.407Z,84.57
2019-03-11T19:39:37.500Z,84.10
2019-03-11T19:44:36.242Z,84.73
2019-03-11T19:49:37.408Z,84.27
2019-03-11T19:54:37.078Z,84.13
2019-03-11T19:59:37.113Z,84.58
2019-03-11T20:04:36.713Z,84.31
2019-03-11T20:09:37.144Z,84.50
2019-03-11T20:14:37.425Z,83.79
2019-03-11T20:19:37.098Z,83.70
2019-03-11T20:24:37.214Z,83.84
2019-03-11T20:29:37.171Z,84.46
2019-03-11T20:34:38.091Z,84.21
2019-03-11T20:39:38.181Z,84.34
2019-03-11T20:44:38.147Z,84.40
2019-03-11T20:49:38.154Z,84.21
2019-03-11T20:54:38.155Z,83.84
2019-03-11T20:59:38.160Z,83.44
2019-03-11T21:04:37.211Z,83.34
2019-03-11T21:09:37.322Z,83.43
2019-03-11T21:14:38.170Z,83.11
2019-03-11T21:19:37.412Z,82.66
2019-03-11T21:24:38.111Z,83.48
2019-03-11T21:29:38.684Z,83.94
2019-03-11T21:34:36.219Z,84.00
2019-03-11T21:39:35.628Z,84.50
2019-03-11T21:44:35.164Z,84.25
2019-03-11T21:49:35.179Z,84.75
2019-03-11T21:54:35.204Z,84.15
2019-03-11T21:59:34.272Z,84.69
2019-03-11T22:04:35.150Z,84.30
2019-03-11T22:09:34.790Z,84.84
2019-03-11T22:14:34.764Z,84.32
2019-03-11T22:19:33.999Z,83.73
2019-03-11T22:24:34.764Z,83.87
2019-03-11T22:29:34.779Z,84.12
2019-03-11T22:34:33.898Z,83.47
2019-03-11T22:39:33.745Z,83.22
2019-03-11T22:44:33.781Z,83.19
2019-03-11T22:49:33.808Z,83.16
2019-03-11T22:54:33.071Z,82.99
2019-03-11T22:59:32.786Z,83.02
2019-03-11T23:04:33.815Z,82.89
2019-03-11T23:09:32.983Z,82.49
2019-03-11T23:14:31.797Z,82.74
2019-03-11T23:19:31.200Z,82.72
2019-03-11T23:24:30.794Z,82.87
2019-03-11T23:29:30.780Z,82.37
2019-03-11T23:34:30.029Z,82.63
2019-03-11T23:39:29.955Z,83.01
2019-03-11T23:44:30.089Z,83.16
2019-03-11T23:49:28.745Z,82.61
2019-03-11T23:54:29.018Z,83.15
2019-03-11T23:59:29.132Z,83.62
